Terminal Aerodrome Forecast
Issued by NWS Quad Cities IA IL

Home | Current Version | Previous Version | Text Only | Print | Product List | Glossary On
Versions: 1 2 3 4 5 6 7 8 9 10 11 12 13 14 15 16 17
000
FTUS43 KDVN 260642 AAA
TAFMLI
TAF AMD
KMLI 260642Z 2607/2706 30008KT P6SM VCSH OVC100
     FM260900 04004KT P6SM OVC080
     FM261400 24006KT P6SM SCT025 OVC040
     FM261800 30010KT P6SM OVC025 PROB30 2621/2624 -SHRA=

USA.gov is the U.S. government's official web portal to all federal, state and local government web resources and services.